Time;durP1;ratioP1;P1;durP2;ratioP2;P2;SDS_P1;SDS_P2;PMS_P1;PMS_P2;Temp;Humidity;BMP_temperature;BMP_pressure;BME280_temperature;BME280_humidity;BME280_pressure;Samples;Min_cycle;Max_cycle;Signal;HPM_P1;HPM_P2
2022/03/27 00:01:14;;;;;;;189.40;57.78;;;8.10;99.90;;;;;;5055139;28;20503;-79
2022/03/27 00:03:40;;;;;;;51.03;17.98;;;8.10;99.90;;;;;;5054021;28;20041;-78
2022/03/27 00:06:06;;;;;;;25.67;11.77;;;8.20;99.90;;;;;;5035995;28;20021;-78
2022/03/27 00:08:31;;;;;;;81.35;26.98;;;8.20;99.90;;;;;;5034789;28;20032;-78
2022/03/27 00:13:41;;;;;;;193.45;65.43;;;8.30;99.90;;;;;;5053399;28;20028;-79
2022/03/27 00:16:09;;;;;;;100.38;36.13;;;8.40;99.90;;;;;;5053220;28;20017;-78
2022/03/27 00:18:37;;;;;;;63.65;22.30;;;8.50;99.90;;;;;;5034736;28;20032;-77
2022/03/27 00:21:07;;;;;;;129.40;40.92;;;8.40;99.90;;;;;;5035359;28;20017;-78
2022/03/27 00:23:33;;;;;;;32.78;14.30;;;8.50;99.90;;;;;;5055589;28;20016;-79
2022/03/27 00:25:59;;;;;;;19.17;9.25;;;8.50;99.90;;;;;;5036778;28;20147;-80
2022/03/27 00:28:25;;;;;;;57.33;21.08;;;8.50;99.90;;;;;;5036949;28;20072;-80
2022/03/27 00:30:51;;;;;;;74.03;28.42;;;8.40;99.90;;;;;;5038006;28;20025;-79
2022/03/27 00:33:18;;;;;;;66.72;25.42;;;8.40;99.90;;;;;;5057562;28;20031;-80
2022/03/27 00:35:44;;;;;;;54.05;20.77;;;8.40;99.90;;;;;;5055875;28;20017;-81
2022/03/27 00:38:10;;;;;;;38.67;13.88;;;8.40;99.90;;;;;;5055178;28;20044;-79
2022/03/27 00:40:36;;;;;;;49.22;20.85;;;8.30;99.90;;;;;;5054564;28;20033;-80
2022/03/27 00:43:02;;;;;;;46.92;20.80;;;8.40;99.90;;;;;;5036400;28;20055;-80
2022/03/27 00:45:28;;;;;;;47.58;18.10;;;8.40;99.90;;;;;;5021370;28;20495;-80
2022/03/27 00:47:54;;;;;;;32.50;13.88;;;8.40;99.90;;;;;;5018017;28;20535;-78
2022/03/27 00:50:20;;;;;;;79.38;27.70;;;8.50;99.90;;;;;;5017037;28;20481;-78
2022/03/27 00:52:46;;;;;;;25.48;12.15;;;8.50;99.90;;;;;;5017112;28;20061;-80
2022/03/27 00:55:12;;;;;;;16.98;9.30;;;8.40;99.90;;;;;;5032457;28;20382;-78
2022/03/27 00:57:37;;;;;;;28.48;12.95;;;8.40;99.90;;;;;;5032214;28;20033;-78
2022/03/27 01:00:09;;;;;;;15.07;9.20;;;8.30;99.90;;;;;;5015443;28;20060;-79
2022/03/27 01:02:36;;;;;;;20.27;9.98;;;8.30;99.90;;;;;;5032872;28;20022;-79
2022/03/27 01:05:08;;;;;;;15.85;9.02;;;8.20;99.90;;;;;;5014253;28;20025;-79
2022/03/27 01:07:34;;;;;;;21.70;9.73;;;8.20;99.90;;;;;;5014269;28;20113;-80
2022/03/27 01:09:59;;;;;;;40.38;14.85;;;8.20;99.90;;;;;;5031928;28;20029;-78
2022/03/27 01:12:32;;;;;;;28.05;12.15;;;8.10;99.90;;;;;;5032051;28;20029;-79
2022/03/27 01:14:59;;;;;;;36.55;16.50;;;8.10;99.90;;;;;;5014372;28;20082;-77
2022/03/27 01:17:26;;;;;;;127.97;41.88;;;8.10;99.90;;;;;;5031648;28;20026;-81
2022/03/27 01:19:55;;;;;;;71.63;26.73;;;8.20;99.90;;;;;;5014610;28;20453;-79
2022/03/27 01:22:22;;;;;;;39.22;18.83;;;8.30;99.90;;;;;;5032378;28;20041;-79
2022/03/27 01:24:51;;;;;;;26.63;14.20;;;8.20;99.90;;;;;;5014576;28;20025;-81
2022/03/27 01:27:17;;;;;;;19.95;10.25;;;8.20;99.90;;;;;;5014625;28;20036;-79
2022/03/27 01:29:43;;;;;;;17.25;9.93;;;8.10;99.90;;;;;;5014209;28;20075;-78
2022/03/27 01:32:11;;;;;;;23.98;12.55;;;8.00;99.90;;;;;;5014453;28;20032;-80
2022/03/27 01:34:37;;;;;;;15.52;8.80;;;7.80;99.90;;;;;;5014607;28;20021;-77
2022/03/27 01:37:07;;;;;;;17.42;8.80;;;7.70;99.90;;;;;;5014240;28;20022;-79
2022/03/27 01:39:33;;;;;;;15.07;8.80;;;7.60;99.90;;;;;;5031795;28;20025;-80
2022/03/27 01:41:59;;;;;;;14.52;8.32;;;7.50;99.90;;;;;;5014241;28;20546;-81
2022/03/27 01:44:25;;;;;;;105.80;54.30;;;7.40;99.90;;;;;;5022753;28;20036;-79
2022/03/27 01:46:52;;;;;;;81.88;42.15;;;7.30;99.90;;;;;;5052823;28;20021;-81
2022/03/27 01:49:19;;;;;;;51.85;29.80;;;7.30;99.90;;;;;;5055553;28;20337;-79
2022/03/27 01:51:45;;;;;;;32.92;17.77;;;7.20;99.90;;;;;;5038596;28;20111;-78
2022/03/27 01:54:11;;;;;;;67.88;38.45;;;7.20;99.90;;;;;;5037960;28;20117;-77
2022/03/27 01:56:38;;;;;;;43.10;25.15;;;7.20;99.90;;;;;;5055873;28;20021;-81
2022/03/27 01:59:05;;;;;;;25.20;12.10;;;7.20;99.90;;;;;;5055696;28;20491;-80
2022/03/27 02:01:31;;;;;;;21.00;12.40;;;7.20;99.90;;;;;;5056152;28;20025;-79
2022/03/27 02:03:57;;;;;;;19.13;11.80;;;7.10;99.90;;;;;;5037915;28;20057;-81
2022/03/27 02:06:23;;;;;;;21.60;13.13;;;7.10;99.90;;;;;;5038365;28;20044;-79
2022/03/27 02:08:50;;;;;;;34.38;21.70;;;7.10;99.90;;;;;;5055583;28;20025;-80
2022/03/27 02:11:16;;;;;;;28.90;17.95;;;7.10;99.90;;;;;;5055552;28;20066;-78
2022/03/27 02:13:42;;;;;;;18.83;11.00;;;7.10;99.90;;;;;;5037692;28;20048;-80
2022/03/27 02:16:08;;;;;;;29.90;18.20;;;7.10;99.90;;;;;;5041726;28;20028;-78
2022/03/27 02:18:34;;;;;;;19.50;13.38;;;7.10;99.90;;;;;;5055295;28;20025;-79
2022/03/27 02:21:00;;;;;;;20.10;11.63;;;7.10;99.90;;;;;;5042211;28;20021;-78
2022/03/27 02:23:28;;;;;;;23.00;12.82;;;7.00;99.90;;;;;;5045171;28;20130;-79
2022/03/27 02:25:55;;;;;;;20.00;12.63;;;7.00;99.90;;;;;;5044521;28;20033;-79
2022/03/27 02:28:21;;;;;;;30.25;15.88;;;7.00;99.90;;;;;;5044683;28;20049;-77
2022/03/27 02:30:47;;;;;;;20.42;11.73;;;7.00;99.90;;;;;;5054762;28;20032;-79
2022/03/27 02:33:12;;;;;;;20.98;11.57;;;6.90;99.90;;;;;;5036758;28;20511;-79
2022/03/27 02:35:38;;;;;;;17.90;11.10;;;6.90;99.90;;;;;;5036506;28;20119;-79
2022/03/27 02:38:05;;;;;;;21.05;10.93;;;6.80;99.90;;;;;;5054004;28;20090;-79
2022/03/27 02:40:34;;;;;;;20.98;11.00;;;6.80;99.90;;;;;;5054392;28;20083;-81
2022/03/27 02:43:00;;;;;;;16.02;11.05;;;6.80;99.90;;;;;;5036349;28;20539;-78
2022/03/27 02:45:27;;;;;;;22.80;13.45;;;6.70;99.90;;;;;;5020006;28;20034;-76
2022/03/27 02:47:56;;;;;;;23.13;13.73;;;6.70;99.90;;;;;;5034394;28;20021;-81
2022/03/27 02:50:22;;;;;;;20.25;12.38;;;6.70;99.90;;;;;;5034476;28;20110;-80
2022/03/27 02:52:48;;;;;;;17.33;11.07;;;6.70;99.90;;;;;;5016544;28;20125;-78
2022/03/27 02:55:13;;;;;;;21.73;13.82;;;6.70;99.90;;;;;;5034599;28;20494;-78
2022/03/27 02:57:39;;;;;;;21.60;13.07;;;6.80;99.90;;;;;;5016124;28;20029;-80
2022/03/27 03:00:07;;;;;;;21.55;12.75;;;6.90;99.90;;;;;;5032977;28;20033;-79
2022/03/27 03:02:33;;;;;;;25.05;13.38;;;7.00;99.90;;;;;;5034335;28;20496;-80
2022/03/27 03:04:59;;;;;;;24.90;13.70;;;7.10;99.90;;;;;;5016113;28;20022;-80
2022/03/27 03:07:25;;;;;;;19.23;13.38;;;7.20;99.90;;;;;;5016013;28;20028;-81
2022/03/27 03:09:51;;;;;;;25.00;14.82;;;7.30;99.90;;;;;;5015862;28;20027;-77
2022/03/27 03:12:17;;;;;;;24.48;14.25;;;7.30;99.90;;;;;;5033713;28;20032;-79
2022/03/27 03:14:43;;;;;;;19.33;12.48;;;7.40;99.90;;;;;;5015976;28;20029;-80
2022/03/27 03:17:09;;;;;;;18.98;13.07;;;7.50;99.90;;;;;;5033681;28;20036;-80
2022/03/27 03:19:35;;;;;;;21.63;12.95;;;7.50;99.90;;;;;;5015190;28;20032;-79
2022/03/27 03:22:00;;;;;;;19.45;13.13;;;7.60;99.90;;;;;;5016041;28;20105;-78
2022/03/27 03:24:27;;;;;;;19.50;12.90;;;7.60;99.90;;;;;;5033362;28;20032;-80
2022/03/27 03:26:54;;;;;;;31.58;21.83;;;7.60;99.90;;;;;;5033706;28;20533;-79
2022/03/27 03:29:23;;;;;;;38.13;23.17;;;7.70;99.90;;;;;;5033097;28;20033;-79
2022/03/27 03:31:49;;;;;;;40.67;22.55;;;8.00;99.90;;;;;;5015853;28;20098;-80
2022/03/27 03:34:16;;;;;;;38.03;23.42;;;8.00;99.90;;;;;;5015630;28;20026;-79
2022/03/27 03:36:42;;;;;;;35.42;21.90;;;8.10;99.90;;;;;;5015459;28;20029;-81
2022/03/27 03:39:08;;;;;;;34.17;21.42;;;8.10;99.90;;;;;;5032982;28;20029;-79
2022/03/27 03:41:34;;;;;;;34.65;22.15;;;8.10;99.90;;;;;;5016459;28;20036;-79
2022/03/27 03:44:00;;;;;;;33.40;20.73;;;8.10;99.90;;;;;;5036452;28;20057;-79
2022/03/27 03:46:25;;;;;;;32.03;20.70;;;8.20;99.90;;;;;;5019150;28;20031;-80
2022/03/27 03:48:51;;;;;;;33.83;23.05;;;8.20;99.90;;;;;;5018274;28;20105;-81
2022/03/27 03:51:17;;;;;;;32.08;22.88;;;8.30;99.90;;;;;;5019364;28;20032;-80
2022/03/27 03:53:43;;;;;;;35.53;24.55;;;8.30;99.90;;;;;;5021590;28;20030;-78
2022/03/27 03:56:09;;;;;;;42.08;24.40;;;8.30;99.90;;;;;;5021430;28;20457;-78
2022/03/27 03:58:35;;;;;;;40.50;26.15;;;8.40;99.90;;;;;;5021106;28;20112;-79
2022/03/27 04:01:02;;;;;;;43.42;25.95;;;8.40;99.90;;;;;;5039003;28;20057;-79
2022/03/27 04:03:28;;;;;;;42.63;26.13;;;8.40;99.90;;;;;;5019518;28;20049;-79
2022/03/27 04:05:53;;;;;;;41.13;25.92;;;8.50;99.90;;;;;;5034990;28;20071;-78
2022/03/27 04:08:19;;;;;;;42.15;26.48;;;8.50;99.90;;;;;;5034434;28;20049;-80
2022/03/27 04:10:45;;;;;;;41.83;26.30;;;8.50;99.90;;;;;;5016272;28;20021;-80
2022/03/27 04:13:11;;;;;;;43.85;27.83;;;8.50;99.90;;;;;;5016741;28;20030;-80
2022/03/27 04:15:38;;;;;;;43.13;27.98;;;8.50;99.90;;;;;;5033586;28;20025;-80
2022/03/27 04:18:06;;;;;;;44.67;27.25;;;8.60;99.90;;;;;;5015239;28;20067;-78
2022/03/27 04:20:33;;;;;;;47.35;28.23;;;8.50;99.90;;;;;;5015763;28;20026;-79
2022/03/27 04:22:58;;;;;;;47.58;28.00;;;8.60;99.90;;;;;;5015819;28;20029;-78
2022/03/27 04:25:24;;;;;;;40.75;27.00;;;8.60;99.90;;;;;;5016248;28;20032;-80
2022/03/27 04:27:51;;;;;;;40.10;26.00;;;8.60;99.90;;;;;;5033555;28;20022;-80
2022/03/27 04:30:17;;;;;;;42.08;26.77;;;8.60;99.90;;;;;;5033769;28;20040;-80
2022/03/27 04:32:44;;;;;;;40.72;26.85;;;8.60;99.90;;;;;;5015635;28;20123;-80
2022/03/27 04:35:10;;;;;;;37.67;24.92;;;8.60;99.90;;;;;;5016035;28;20030;-78
2022/03/27 04:37:43;;;;;;;34.47;23.50;;;8.60;99.90;;;;;;5017419;28;20418;-80
2022/03/27 04:40:13;;;;;;;34.05;24.67;;;8.60;99.90;;;;;;5018540;28;20112;-79
2022/03/27 04:42:40;;;;;;;35.03;23.75;;;8.60;99.90;;;;;;5016867;28;20024;-78
2022/03/27 04:45:08;;;;;;;33.28;21.52;;;8.60;99.90;;;;;;5030548;28;20058;-79
2022/03/27 04:47:34;;;;;;;32.70;22.55;;;8.50;99.90;;;;;;5038794;28;20028;-80
2022/03/27 04:50:00;;;;;;;35.88;22.88;;;8.60;99.90;;;;;;5055750;28;20025;-78
2022/03/27 04:52:26;;;;;;;33.80;23.75;;;8.60;99.90;;;;;;5037974;28;20413;-80
2022/03/27 04:54:52;;;;;;;32.55;22.30;;;8.50;99.90;;;;;;5055881;28;20599;-79
2022/03/27 04:57:18;;;;;;;37.58;23.80;;;8.50;99.90;;;;;;5038250;28;20112;-79
2022/03/27 04:59:44;;;;;;;33.25;22.48;;;8.50;99.90;;;;;;5038316;28;20061;-79
2022/03/27 05:02:10;;;;;;;33.35;23.98;;;8.50;99.90;;;;;;5037806;28;20021;-78
2022/03/27 05:04:37;;;;;;;31.20;22.30;;;8.40;99.90;;;;;;5036426;28;20044;-80
2022/03/27 05:07:04;;;;;;;29.83;22.40;;;8.50;99.90;;;;;;5035601;28;20098;-76
2022/03/27 05:09:30;;;;;;;32.50;21.98;;;8.50;99.90;;;;;;5035077;28;20036;-79
2022/03/27 05:11:55;;;;;;;33.63;22.52;;;8.40;99.90;;;;;;5036118;28;20025;-80
2022/03/27 05:14:22;;;;;;;36.38;21.27;;;8.40;99.90;;;;;;5053993;28;20033;-80
2022/03/27 05:16:47;;;;;;;29.88;20.30;;;8.40;99.90;;;;;;5054882;28;20052;-78
2022/03/27 05:19:13;;;;;;;34.42;22.63;;;8.30;99.90;;;;;;5037562;28;20025;-78
2022/03/27 05:21:38;;;;;;;26.23;19.67;;;8.30;99.90;;;;;;5055513;28;20032;-79
2022/03/27 05:24:08;;;;;;;32.05;21.90;;;8.30;99.90;;;;;;5042912;28;20043;-80
2022/03/27 05:26:35;;;;;;;27.33;19.20;;;8.20;99.90;;;;;;5041613;28;20027;-80
2022/03/27 05:29:04;;;;;;;30.38;19.80;;;8.30;99.90;;;;;;5044545;28;20039;-80
2022/03/27 05:31:29;;;;;;;29.65;19.17;;;8.30;99.90;;;;;;5044974;28;20385;-78
2022/03/27 05:33:55;;;;;;;26.95;18.85;;;8.20;99.90;;;;;;5045531;28;20039;-79
2022/03/27 05:36:21;;;;;;;26.30;19.35;;;8.20;99.90;;;;;;5045003;28;20147;-79
2022/03/27 05:38:47;;;;;;;27.30;19.20;;;8.20;99.90;;;;;;5045892;28;20025;-80
2022/03/27 05:41:13;;;;;;;27.95;19.05;;;8.20;99.90;;;;;;5045005;28;20051;-80
2022/03/27 05:43:38;;;;;;;32.65;19.25;;;8.20;99.90;;;;;;5063252;28;20033;-79
2022/03/27 05:46:05;;;;;;;29.40;17.92;;;8.20;99.90;;;;;;5043494;28;20373;-78
2022/03/27 05:48:31;;;;;;;26.67;18.92;;;8.20;99.90;;;;;;5043060;28;20017;-80
2022/03/27 05:50:58;;;;;;;29.63;18.45;;;8.20;99.90;;;;;;5061490;28;20036;-80
2022/03/27 05:53:23;;;;;;;28.20;19.38;;;8.20;99.90;;;;;;5061645;28;20429;-78
2022/03/27 05:55:51;;;;;;;29.25;19.75;;;8.20;99.90;;;;;;5062519;28;20040;-80
2022/03/27 05:58:17;;;;;;;33.13;19.70;;;8.20;99.90;;;;;;5062428;28;20043;-79
2022/03/27 06:00:43;;;;;;;30.52;19.05;;;8.20;99.90;;;;;;5043776;28;20029;-79
2022/03/27 06:03:09;;;;;;;31.75;19.73;;;8.20;99.90;;;;;;5062290;28;20024;-78
2022/03/27 06:05:35;;;;;;;30.98;18.90;;;8.20;99.90;;;;;;5040889;28;20122;-78
2022/03/27 06:08:01;;;;;;;28.90;18.92;;;8.30;99.90;;;;;;5039281;28;20047;-78
2022/03/27 06:10:31;;;;;;;28.55;18.65;;;8.30;99.90;;;;;;5058566;28;20519;-78
2022/03/27 06:12:58;;;;;;;33.42;19.80;;;8.30;99.90;;;;;;5042239;28;20039;-77
2022/03/27 06:15:25;;;;;;;31.65;19.73;;;8.30;99.90;;;;;;5043776;28;20101;-80
2022/03/27 06:17:53;;;;;;;28.85;19.52;;;8.30;99.90;;;;;;5043969;28;20500;-81
2022/03/27 06:20:25;;;;;;;31.17;19.65;;;8.30;99.90;;;;;;5041775;28;20044;-80
2022/03/27 06:22:52;;;;;;;28.17;19.55;;;8.30;99.90;;;;;;5043131;28;20025;-78
2022/03/27 06:25:20;;;;;;;27.67;19.05;;;8.30;99.90;;;;;;5061596;28;20029;-80
2022/03/27 06:27:48;;;;;;;32.90;20.92;;;8.30;99.90;;;;;;5062880;28;20032;-79
2022/03/27 06:30:16;;;;;;;31.30;21.30;;;8.30;99.90;;;;;;5044766;28;20052;-80
2022/03/27 06:32:43;;;;;;;28.77;18.92;;;8.30;99.90;;;;;;5063825;28;20029;-79
2022/03/27 06:35:10;;;;;;;32.17;20.02;;;8.40;99.90;;;;;;5042319;28;20059;-81
2022/03/27 06:37:36;;;;;;;30.67;20.10;;;8.30;99.90;;;;;;5040316;28;20063;-78
2022/03/27 06:40:03;;;;;;;31.55;20.02;;;8.30;99.90;;;;;;5044758;28;20036;-81
2022/03/27 06:42:30;;;;;;;30.83;19.48;;;8.30;99.90;;;;;;5066523;28;20028;-82
2022/03/27 06:44:58;;;;;;;31.52;20.02;;;8.40;99.90;;;;;;5052824;28;20128;-81
2022/03/27 06:47:26;;;;;;;32.38;19.55;;;8.40;99.90;;;;;;5034054;28;20014;-80
2022/03/27 06:49:56;;;;;;;30.02;18.77;;;8.50;99.90;;;;;;5036781;28;20089;-78
2022/03/27 06:52:23;;;;;;;33.15;21.23;;;8.50;99.90;;;;;;5037125;28;20025;-78
2022/03/27 06:54:51;;;;;;;29.88;20.15;;;8.60;99.90;;;;;;5032331;28;20032;-81
2022/03/27 06:57:17;;;;;;;29.80;20.05;;;8.60;99.90;;;;;;5055998;23;20484;-79
2022/03/27 07:05:12;;;;;;;30.73;20.42;;;8.60;99.90;;;;;;5059140;28;20037;-80
2022/03/27 07:07:38;;;;;;;35.17;21.55;;;8.70;99.90;;;;;;5062684;28;20028;-81
2022/03/27 07:10:04;;;;;;;33.85;21.23;;;8.70;99.90;;;;;;5064827;28;20081;-78
2022/03/27 07:12:30;;;;;;;32.47;20.02;;;8.70;99.90;;;;;;5062898;28;20036;-77
2022/03/27 07:14:56;;;;;;;34.30;22.60;;;8.70;99.90;;;;;;5061561;28;20036;-82
2022/03/27 07:17:21;;;;;;;35.08;20.83;;;8.80;99.90;;;;;;5044317;28;20048;-82
2022/03/27 07:19:48;;;;;;;34.08;20.58;;;8.80;99.90;;;;;;5062971;28;20052;-79
2022/03/27 07:22:14;;;;;;;33.17;20.98;;;8.80;99.90;;;;;;5063218;28;20542;-79
2022/03/27 07:24:41;;;;;;;34.28;20.63;;;8.80;99.90;;;;;;5063272;28;20025;-81
2022/03/27 07:27:08;;;;;;;35.28;21.42;;;8.80;99.90;;;;;;5045110;28;20017;-79
2022/03/27 07:29:35;;;;;;;34.60;22.52;;;8.90;99.90;;;;;;5042626;28;20116;-80
2022/03/27 07:32:01;;;;;;;32.75;20.85;;;9.00;99.90;;;;;;5060408;28;20025;-80
2022/03/27 07:34:26;;;;;;;34.58;21.45;;;9.00;99.90;;;;;;5059579;28;20025;-82
2022/03/27 07:36:52;;;;;;;28.83;20.17;;;9.10;99.90;;;;;;5059098;28;20027;-80
2022/03/27 07:39:18;;;;;;;33.70;21.08;;;9.20;99.90;;;;;;5059171;28;20029;-81
2022/03/27 07:41:43;;;;;;;35.35;21.17;;;9.30;99.90;;;;;;5042010;28;20029;-81
2022/03/27 07:44:09;;;;;;;29.80;19.42;;;9.30;99.90;;;;;;5047456;28;20044;-81
2022/03/27 07:46:35;;;;;;;36.42;21.15;;;9.50;99.90;;;;;;5059732;28;20149;-81
2022/03/27 07:49:01;;;;;;;31.45;19.52;;;9.60;99.90;;;;;;5058856;28;20040;-81
2022/03/27 07:51:26;;;;;;;30.08;19.80;;;9.80;99.90;;;;;;5080260;28;20027;-80
2022/03/27 07:53:52;;;;;;;30.65;19.95;;;9.90;99.90;;;;;;5081155;28;20389;-80
2022/03/27 07:56:19;;;;;;;29.75;20.33;;;10.10;99.90;;;;;;5087243;28;20013;-80
2022/03/27 07:58:45;;;;;;;27.95;18.35;;;10.20;99.90;;;;;;5063272;28;20030;-80
2022/03/27 08:01:15;;;;;;;30.20;20.60;;;10.30;99.90;;;;;;5079403;28;20020;-81
2022/03/27 08:03:44;;;;;;;27.65;19.38;;;10.40;99.90;;;;;;5079655;28;20016;-82
2022/03/27 08:06:09;;;;;;;26.73;18.52;;;10.40;99.90;;;;;;5062695;28;20025;-81
2022/03/27 08:08:35;;;;;;;27.85;19.05;;;10.50;99.90;;;;;;5079800;28;20027;-85
2022/03/27 08:11:00;;;;;;;25.05;17.77;;;10.50;99.90;;;;;;5061535;28;20375;-79
2022/03/27 08:13:26;;;;;;;25.77;17.20;;;10.70;99.90;;;;;;5078983;28;20025;-77
2022/03/27 08:15:54;;;;;;;29.20;18.58;;;10.90;99.90;;;;;;5060104;28;20055;-79
2022/03/27 08:18:20;;;;;;;25.25;17.63;;;11.20;99.90;;;;;;5059679;28;20119;-79
2022/03/27 08:20:46;;;;;;;30.23;19.08;;;11.40;99.90;;;;;;5059109;28;20036;-78
2022/03/27 08:23:12;;;;;;;27.27;18.77;;;11.50;99.90;;;;;;5058446;28;20017;-78
2022/03/27 08:28:23;;;;;;;27.20;18.95;;;11.50;99.90;;;;;;5076152;28;20138;-78
2022/03/27 08:30:49;;;;;;;27.55;19.13;;;11.60;99.90;;;;;;5076553;28;20024;-77
2022/03/27 08:33:16;;;;;;;27.75;18.98;;;11.50;99.90;;;;;;5077824;28;20024;-79
2022/03/27 08:35:42;;;;;;;28.23;19.38;;;11.40;99.90;;;;;;5077399;28;20070;-78
2022/03/27 08:38:12;;;;;;;29.10;19.30;;;11.60;99.90;;;;;;5058278;28;20021;-80
2022/03/27 08:40:40;;;;;;;26.88;18.73;;;11.80;99.90;;;;;;5076553;28;20576;-80
2022/03/27 08:43:10;;;;;;;25.75;17.35;;;12.30;99.90;;;;;;5058885;28;20025;-78
2022/03/27 08:45:37;;;;;;;25.73;17.85;;;12.80;99.90;;;;;;5059094;28;20365;-80
2022/03/27 08:48:04;;;;;;;27.15;19.45;;;13.00;99.90;;;;;;5038892;28;20075;-79
2022/03/27 08:50:37;;;;;;;26.75;19.08;;;12.60;99.90;;;;;;5056764;28;20112;-79
2022/03/27 08:53:05;;;;;;;30.63;20.10;;;12.50;99.90;;;;;;5038736;28;20053;-80
2022/03/27 08:56:02;;;;;;;29.25;20.55;;;12.60;99.90;;;;;;5039196;28;20029;-78
2022/03/27 08:58:40;;;;;;;25.98;18.15;;;12.50;99.90;;;;;;5042951;28;20029;-79
2022/03/27 09:01:07;;;;;;;31.75;20.05;;;12.60;99.90;;;;;;5062397;28;20029;-80
2022/03/27 09:03:33;;;;;;;30.00;20.27;;;12.80;99.90;;;;;;5063478;28;20029;-81
2022/03/27 09:06:02;;;;;;;34.30;21.30;;;12.80;99.90;;;;;;5064994;28;20025;-79
2022/03/27 09:08:32;;;;;;;30.70;20.80;;;12.60;99.90;;;;;;5046000;28;20331;-78
2022/03/27 09:10:57;;;;;;;34.40;21.98;;;12.50;99.90;;;;;;5047629;28;20024;-80
2022/03/27 09:13:24;;;;;;;30.10;20.70;;;12.50;99.90;;;;;;5061799;28;20516;-78
2022/03/27 09:16:02;;;;;;;31.40;20.48;;;12.60;99.90;;;;;;5059282;28;20392;-78
2022/03/27 09:18:52;;;;;;;30.38;19.27;;;12.70;99.90;;;;;;5059768;28;20029;-80
2022/03/27 09:21:23;;;;;;;28.98;19.83;;;12.80;99.90;;;;;;5048784;28;20036;-78
2022/03/27 09:23:57;;;;;;;29.45;19.67;;;12.70;99.90;;;;;;5076210;28;20020;-78
2022/03/27 09:26:23;;;;;;;26.45;18.80;;;12.70;99.90;;;;;;5071666;28;20021;-78
2022/03/27 09:29:08;;;;;;;30.52;19.00;;;12.90;99.90;;;;;;5045962;28;20021;-80
2022/03/27 09:31:34;;;;;;;30.25;20.13;;;13.20;99.90;;;;;;5062538;28;20024;-79
2022/03/27 09:34:03;;;;;;;29.60;19.67;;;13.50;99.90;;;;;;5044638;28;20452;-79
2022/03/27 09:36:29;;;;;;;29.08;19.98;;;13.70;99.90;;;;;;5063309;28;20032;-77
2022/03/27 09:39:09;;;;;;;28.00;19.13;;;13.80;99.90;;;;;;5043466;28;20488;-80
2022/03/27 09:41:42;;;;;;;27.55;19.13;;;13.70;99.90;;;;;;5045709;28;20028;-79
2022/03/27 09:44:15;;;;;;;28.63;19.05;;;13.60;99.90;;;;;;5053575;28;20137;-81
2022/03/27 09:46:59;;;;;;;28.38;18.45;;;13.50;99.90;;;;;;5084273;28;20063;-78
2022/03/27 09:49:31;;;;;;;29.42;19.48;;;13.50;99.90;;;;;;5064614;28;20117;-80
2022/03/27 09:51:59;;;;;;;26.45;18.52;;;13.70;99.90;;;;;;5081776;28;20028;-80
2022/03/27 09:54:27;;;;;;;27.98;18.15;;;13.70;99.90;;;;;;5063182;28;20367;-79
2022/03/27 09:56:53;;;;;;;27.73;19.45;;;13.80;99.90;;;;;;5081180;28;20092;-80
2022/03/27 09:59:29;;;;;;;27.42;17.98;;;13.90;99.90;;;;;;5081623;28;20025;-78
2022/03/27 10:01:56;;;;;;;25.65;17.55;;;13.90;99.90;;;;;;5061454;28;20096;-80
2022/03/27 10:04:21;;;;;;;26.70;16.63;;;13.90;99.90;;;;;;5080271;28;20033;-77
2022/03/27 10:06:47;;;;;;;26.70;17.55;;;13.90;99.90;;;;;;5063028;28;20020;-80
2022/03/27 10:09:14;;;;;;;27.52;19.35;;;14.00;99.90;;;;;;5061885;28;20044;-78
2022/03/27 10:11:41;;;;;;;28.25;18.55;;;14.10;99.90;;;;;;5081754;28;20028;-79
2022/03/27 10:14:08;;;;;;;24.63;17.40;;;14.10;99.90;;;;;;5081772;28;20392;-80
2022/03/27 10:16:47;;;;;;;32.45;20.00;;;14.20;99.90;;;;;;5063082;28;20028;-80
2022/03/27 10:19:21;;;;;;;24.10;15.85;;;14.20;99.90;;;;;;5065886;28;20028;-81
2022/03/27 10:21:50;;;;;;;21.40;14.40;;;14.40;99.90;;;;;;5084390;28;20025;-79
2022/03/27 10:24:18;;;;;;;24.17;17.00;;;14.50;99.90;;;;;;5064724;28;20091;-80
2022/03/27 10:26:45;;;;;;;23.65;16.00;;;14.40;99.90;;;;;;5080310;28;20706;-80
2022/03/27 10:29:13;;;;;;;21.10;13.73;;;14.40;99.90;;;;;;5063126;28;20024;-81
2022/03/27 10:31:38;;;;;;;24.17;16.08;;;14.40;99.90;;;;;;5082729;28;20033;-80
2022/03/27 10:34:07;;;;;;;21.52;14.20;;;14.90;99.90;;;;;;5065647;28;20074;-77
2022/03/27 10:36:52;;;;;;;20.17;13.27;;;15.10;99.90;;;;;;5064754;28;20067;-78
2022/03/27 10:39:28;;;;;;;19.33;14.13;;;15.50;99.90;;;;;;5063102;28;20028;-79
2022/03/27 10:42:11;;;;;;;21.25;13.95;;;15.90;99.90;;;;;;5081398;28;20024;-79
2022/03/27 10:44:55;;;;;;;19.75;15.02;;;16.20;99.90;;;;;;5054415;28;20107;-80
2022/03/27 10:47:23;;;;;;;18.08;13.93;;;16.40;99.90;;;;;;5062264;28;20021;-78
2022/03/27 10:50:01;;;;;;;19.58;14.70;;;16.70;99.90;;;;;;5044543;28;20107;-79
2022/03/27 10:52:28;;;;;;;19.45;14.55;;;16.60;99.90;;;;;;5044621;28;20036;-78
2022/03/27 10:55:06;;;;;;;19.48;13.98;;;16.60;99.90;;;;;;5062908;28;20045;-79
2022/03/27 10:57:37;;;;;;;17.25;13.02;;;16.60;99.90;;;;;;5061756;28;20083;-79
2022/03/27 11:00:06;;;;;;;18.42;13.73;;;16.90;99.30;;;;;;5062347;28;20017;-78
2022/03/27 11:03:01;;;;;;;18.83;13.77;;;17.10;99.90;;;;;;5062865;28;20021;-81
2022/03/27 11:05:31;;;;;;;19.73;14.10;;;17.00;99.90;;;;;;5028291;28;20500;-77
2022/03/27 11:08:15;;;;;;;15.93;13.18;;;16.90;99.90;;;;;;5061815;28;20085;-80
2022/03/27 11:10:42;;;;;;;17.98;13.88;;;16.90;99.90;;;;;;5041109;28;20033;-79
2022/03/27 11:13:26;;;;;;;22.45;15.27;;;17.00;97.80;;;;;;5059045;28;20431;-79
2022/03/27 11:16:04;;;;;;;20.75;15.00;;;16.80;99.90;;;;;;5040522;28;20035;-78
2022/03/27 11:18:43;;;;;;;31.25;19.27;;;16.80;99.90;;;;;;5040379;28;20404;-78
2022/03/27 11:21:29;;;;;;;18.77;13.85;;;16.90;99.90;;;;;;5039072;28;20503;-77
2022/03/27 11:24:04;;;;;;;18.98;15.32;;;17.10;99.00;;;;;;5056524;28;20074;-79
2022/03/27 11:26:29;;;;;;;20.17;14.32;;;17.20;97.20;;;;;;5040285;28;20021;-79
2022/03/27 11:29:22;;;;;;;18.15;14.35;;;17.40;99.70;;;;;;5040155;28;20024;-80
2022/03/27 11:32:09;;;;;;;21.90;14.27;;;17.40;96.80;;;;;;5038050;28;20036;-77
2022/03/27 11:34:38;;;;;;;21.40;14.75;;;17.10;98.50;;;;;;5040219;28;20029;-81
2022/03/27 11:37:15;;;;;;;21.75;16.08;;;16.90;96.10;;;;;;5057325;28;20105;-78
2022/03/27 11:39:41;;;;;;;19.30;15.20;;;16.80;97.50;;;;;;5057904;28;20025;-77
2022/03/27 11:42:27;;;;;;;18.63;14.10;;;16.90;99.90;;;;;;5056729;28;20392;-79
2022/03/27 11:45:18;;;;;;;21.33;14.95;;;17.00;99.80;;;;;;5050457;28;20021;-79
2022/03/27 11:47:46;;;;;;;18.63;13.98;;;17.40;98.40;;;;;;5077700;28;20025;-79
2022/03/27 11:50:21;;;;;;;19.35;14.50;;;17.70;99.50;;;;;;5076644;28;20087;-79
2022/03/27 11:52:47;;;;;;;16.67;12.80;;;17.80;91.80;;;;;;5077616;28;20480;-80
2022/03/27 11:55:13;;;;;;;15.95;12.18;;;17.20;95.40;;;;;;5060699;28;20024;-79
2022/03/27 11:57:52;;;;;;;13.40;11.82;;;17.20;97.90;;;;;;5077454;28;20032;-78
2022/03/27 12:00:38;;;;;;;16.13;11.95;;;17.30;93.10;;;;;;5076360;28;20088;-80
2022/03/27 12:03:16;;;;;;;13.75;11.23;;;17.60;96.40;;;;;;5058874;28;20399;-79
2022/03/27 12:05:43;;;;;;;22.75;14.90;;;17.80;91.30;;;;;;5057982;28;20025;-78
2022/03/27 12:08:12;;;;;;;16.70;12.50;;;18.00;90.90;;;;;;5058562;28;20021;-78
2022/03/27 12:10:43;;;;;;;16.25;11.68;;;17.80;90.90;;;;;;5076707;28;20023;-78
2022/03/27 12:13:11;;;;;;;16.05;11.75;;;18.00;91.90;;;;;;5079956;28;20516;-80
2022/03/27 12:15:43;;;;;;;12.38;10.30;;;18.20;87.10;;;;;;5062978;28;20021;-79
2022/03/27 12:18:09;;;;;;;14.52;11.07;;;17.90;86.40;;;;;;5080559;28;20043;-79
2022/03/27 12:20:55;;;;;;;16.08;12.68;;;18.00;85.10;;;;;;5079583;28;20384;-81
2022/03/27 12:23:32;;;;;;;14.57;10.80;;;18.00;86.10;;;;;;5061193;28;20032;-79
2022/03/27 12:29:39;;;;;;;14.23;10.45;;;18.10;88.00;;;;;;5079160;28;20024;-79
2022/03/27 12:31:35;;;;;;;13.05;9.73;;;18.10;83.80;;;;;;5078190;28;20035;-77
2022/03/27 12:34:01;;;;;;;13.45;10.07;;;18.20;82.30;;;;;;5077731;28;20032;-80
2022/03/27 12:36:27;;;;;;;13.00;10.50;;;18.30;79.40;;;;;;5078934;28;20033;-79
2022/03/27 12:38:52;;;;;;;12.82;10.30;;;18.20;82.00;;;;;;5091600;28;20082;-78
2022/03/27 12:41:39;;;;;;;16.50;11.15;;;18.20;82.10;;;;;;5068791;28;20088;-78
2022/03/27 12:44:05;;;;;;;14.45;11.55;;;18.30;82.10;;;;;;5076017;28;20013;-79
2022/03/27 12:46:31;;;;;;;12.82;10.15;;;18.30;79.60;;;;;;5059297;28;20073;-79
2022/03/27 12:48:59;;;;;;;13.00;10.68;;;18.30;79.70;;;;;;5040524;28;20085;-81
2022/03/27 12:51:25;;;;;;;14.23;11.27;;;18.30;80.30;;;;;;5059610;28;20072;-82
2022/03/27 12:54:20;;;;;;;14.23;10.60;;;18.10;79.70;;;;;;5057734;28;20033;-78